Aérodrome :







RETROUVEZ-NOUS SUR...

 
LOGIN :

S'inscrire | Disclaimer

   EN    FR    IT 

 









Légende :    VFR   VFR Marginal   IFR   IFR Intensif   IFR Très Intensif
Visi : 
Plafond : 
>= 8 km
>= 3000ft
5 à 8 km
1000 à 3000 ft
1500m à 5 km
500 à 1000 ft
800 à 1500m
200 à 500 ft
< 800m
< 200 ft
Symboles :   Orages  Brouillard  Fortes neiges  Fortes précipitations  Vent > 20 kt







- Altitude de l'aérodrome : 49 ft


KOWD - Norwood Memorial

DERNIER METAR :
  • 251053Z 00000KT 7SM CLR 12/09 A3030 RMK AO2 SLP260 T01220094

METARs EXPIRÉS :
  • 251016Z AUTO 00000KT 5SM BR SCT002 11/09 A3029 RMK AO2 T01110089
  • 250953Z AUTO 00000KT 3/4SM BR VV002 11/09 A3029 RMK AO2 SLP255 T01110089
  • 250944Z AUTO 00000KT 1SM BR VV002 11/09 A3028 RMK AO2 T01060089
  • 250927Z AUTO 00000KT 1 1/4SM BR FEW003 12/09 A3028 RMK AO2 T01170094
  • 250914Z AUTO 00000KT 3/4SM BR VV003 12/09 A3028 RMK AO2 T01170094
  • 250906Z AUTO 00000KT 1 1/2SM BR FEW002 11/09 A3028 RMK AO2 VIS 1/2V5 T01110089
  • 250853Z AUTO 00000KT 6SM HZ SCT002 12/09 A3028 RMK AO2 SLP253 T01170089 57002

TAF N/A
Pas de NOTAMs connus pour ce terrain.



MET'MAP, la Météo Aéronautique d'un coup d'oeil ! - Copyright ORBIFLY Décembre 2007 - Disclaimer

ORBIFLY MET'MAP TEAM :

Programmation & Développement : Alexandra Zaïnal
Conception & Développement : Baudouin d'Aumeries
Co-Programmation & Développement : Marc-Olivier Méhu
Soutien technique & logistique : Manuel Goepfert

Contact : metmap@orbifly.com




SOURCES & CREDITS :

   NOAA